Wetterdaten: Woche 02.06.25 - 08.06.25 (KW23)
Datum Zeit Temp. I. Temp. A. Feuchte I. Feuchte A. Luftdruck Regen Wind Richtung Sonnenschein Solar Taupunkt Windchill Windböen
02.06.2025 00:00 22,9 °C 13,2 °C 63 % 94 % 1013,5 hPa 0,0 l/m² 0,5 km/h (0 Bft) W-SW 0,00 h 0 W/m² 12,2 °C 13,2 °C 1,0 km/h (0 Bft)
02.06.2025 01:00 22,8 °C 12,7 °C 63 % 95 % 1013,9 hPa 0,0 l/m² 0,3 km/h (0 Bft) W-SW 0,00 h 0 W/m² 11,9 °C 12,7 °C 0,7 km/h (0 Bft)
02.06.2025 02:00 22,8 °C 12,3 °C 62 % 95 % 1014,2 hPa 0,0 l/m² 0,4 km/h (0 Bft) W-SW 0,00 h 0 W/m² 11,5 °C 12,3 °C 0,9 km/h (0 Bft)
02.06.2025 03:00 22,7 °C 11,8 °C 62 % 95 % 1014,0 hPa 0,0 l/m² 0,4 km/h (0 Bft) W-SW 0,00 h 0 W/m² 11,0 °C 11,8 °C 0,6 km/h (0 Bft)
02.06.2025 04:00 22,7 °C 11,4 °C 62 % 95 % 1014,1 hPa 0,0 l/m² 0,0 km/h (0 Bft) W-SW 0,00 h 5 W/m² 10,7 °C 11,4 °C 0,1 km/h (0 Bft)
02.06.2025 05:00 22,7 °C 11,4 °C 62 % 96 % 1014,3 hPa 0,0 l/m² 0,0 km/h (0 Bft) W-SW 0,00 h 19 W/m² 10,7 °C 11,4 °C 0,1 km/h (0 Bft)
02.06.2025 06:00 22,6 °C 12,5 °C 62 % 96 % 1014,8 hPa 0,0 l/m² 0,2 km/h (0 Bft) W-SW 0,60 h 65 W/m² 11,9 °C 12,5 °C 0,5 km/h (0 Bft)
02.06.2025 07:00 22,6 °C 14,0 °C 61 % 96 % 1015,0 hPa 0,0 l/m² 0,0 km/h (0 Bft) W-SW 1,00 h 175 W/m² 13,4 °C 14,0 °C 0,0 km/h (0 Bft)
02.06.2025 08:00 22,6 °C 16,6 °C 61 % 93 % 1015,3 hPa 0,0 l/m² 3,4 km/h (1 Bft) SW 1,00 h 269 W/m² 15,5 °C 16,6 °C 4,6 km/h (1 Bft)
02.06.2025 09:00 22,5 °C 18,1 °C 61 % 85 % 1015,6 hPa 0,0 l/m² 5,9 km/h (2 Bft) SW 1,00 h 374 W/m² 15,5 °C 17,9 °C 8,1 km/h (2 Bft)
02.06.2025 10:00 22,6 °C 20,0 °C 61 % 77 % 1015,4 hPa 0,0 l/m² 8,4 km/h (2 Bft) S-SW 1,00 h 587 W/m² 15,8 °C 19,1 °C 11,8 km/h (2 Bft)
02.06.2025 11:00 22,6 °C 20,9 °C 60 % 71 % 1015,6 hPa 0,0 l/m² 11,6 km/h (2 Bft) SW 1,00 h 561 W/m² 15,5 °C 19,3 °C 15,6 km/h (3 Bft)
02.06.2025 12:00 22,6 °C 20,5 °C 60 % 70 % 1015,6 hPa 0,0 l/m² 10,5 km/h (2 Bft) SW 0,98 h 298 W/m² 14,7 °C 19,0 °C 15,2 km/h (3 Bft)
02.06.2025 13:00 22,6 °C 21,2 °C 60 % 67 % 1015,1 hPa 0,0 l/m² 11,9 km/h (2 Bft) SW 1,00 h 489 W/m² 14,9 °C 19,6 °C 16,8 km/h (3 Bft)
02.06.2025 14:00 22,6 °C 22,8 °C 60 % 61 % 1014,6 hPa 0,0 l/m² 17,7 km/h (3 Bft) SW 1,02 h 695 W/m² 14,9 °C 20,2 °C 24,2 km/h (4 Bft)
02.06.2025 15:00 22,6 °C 22,6 °C 60 % 60 % 1014,3 hPa 0,0 l/m² 17,1 km/h (3 Bft) SW 1,00 h 506 W/m² 14,5 °C 20,0 °C 23,6 km/h (4 Bft)
02.06.2025 16:00 22,6 °C 22,9 °C 59 % 57 % 1014,1 hPa 0,0 l/m² 14,6 km/h (3 Bft) W-SW 1,00 h 421 W/m² 14,0 °C 20,9 °C 20,8 km/h (4 Bft)
02.06.2025 17:00 22,6 °C 22,5 °C 60 % 58 % 1014,0 hPa 0,0 l/m² 15,1 km/h (3 Bft) SW 1,00 h 380 W/m² 13,9 °C 20,3 °C 20,9 km/h (4 Bft)
02.06.2025 18:00 22,6 °C 21,8 °C 56 % 60 % 1014,0 hPa 0,0 l/m² 14,0 km/h (3 Bft) SW 1,00 h 196 W/m² 13,6 °C 19,7 °C 19,6 km/h (3 Bft)
02.06.2025 19:00 22,6 °C 20,8 °C 57 % 62 % 1013,9 hPa 0,0 l/m² 12,6 km/h (2 Bft) SW 1,00 h 98 W/m² 13,4 °C 18,9 °C 17,0 km/h (3 Bft)
02.06.2025 20:00 22,7 °C 19,0 °C 59 % 70 % 1014,2 hPa 0,0 l/m² 4,9 km/h (1 Bft) SW 0,22 h 36 W/m² 13,3 °C 18,5 °C 7,5 km/h (2 Bft)
02.06.2025 21:00 22,8 °C 16,4 °C 60 % 81 % 1014,7 hPa 0,0 l/m² 0,4 km/h (0 Bft) W-SW 0,00 h 7 W/m² 13,1 °C 16,4 °C 0,8 km/h (0 Bft)
02.06.2025 22:00 22,7 °C 15,1 °C 60 % 83 % 1015,3 hPa 0,0 l/m² 3,6 km/h (1 Bft) W 0,00 h 0 W/m² 12,2 °C 14,8 °C 7,6 km/h (2 Bft)
02.06.2025 23:00 22,6 °C 14,9 °C 60 % 78 % 1015,7 hPa 0,0 l/m² 4,5 km/h (1 Bft) W-NW 0,00 h 0 W/m² 11,1 °C 14,8 °C 10,0 km/h (2 Bft)
03.06.2025 00:00 22,4 °C 13,1 °C 60 % 82 % 1016,0 hPa 0,0 l/m² 2,2 km/h (1 Bft) W-NW 0,00 h 0 W/m² 10,1 °C 13,1 °C 4,5 km/h (1 Bft)
03.06.2025 01:00 22,3 °C 11,5 °C 60 % 88 % 1016,0 hPa 0,0 l/m² 0,3 km/h (0 Bft) N 0,00 h 0 W/m² 9,6 °C 11,5 °C 0,7 km/h (0 Bft)
03.06.2025 02:00 22,3 °C 11,0 °C 60 % 90 % 1016,0 hPa 0,0 l/m² 0,4 km/h (0 Bft) N 0,00 h 0 W/m² 9,4 °C 11,0 °C 0,8 km/h (0 Bft)
03.06.2025 03:00 22,3 °C 10,0 °C 59 % 91 % 1016,0 hPa 0,0 l/m² 0,3 km/h (0 Bft) N 0,00 h 0 W/m² 8,7 °C 10,0 °C 0,8 km/h (0 Bft)
03.06.2025 04:00 22,2 °C 8,8 °C 59 % 92 % 1016,0 hPa 0,0 l/m² 0,8 km/h (0 Bft) SW 0,00 h 0 W/m² 7,5 °C 8,8 °C 1,6 km/h (1 Bft)
03.06.2025 05:00 22,2 °C 8,2 °C 59 % 93 % 1016,0 hPa 0,0 l/m² 0,1 km/h (0 Bft) N 0,00 h 22 W/m² 7,2 °C 8,2 °C 0,5 km/h (0 Bft)
03.06.2025 06:00 22,0 °C 9,7 °C 57 % 94 % 1016,1 hPa 0,0 l/m² 0,7 km/h (0 Bft) N 0,98 h 112 W/m² 8,8 °C 9,7 °C 1,3 km/h (1 Bft)
03.06.2025 07:00 21,9 °C 12,5 °C 56 % 90 % 1016,1 hPa 0,0 l/m² 0,0 km/h (0 Bft) N 1,00 h 221 W/m² 11,0 °C 12,5 °C 0,1 km/h (0 Bft)
03.06.2025 08:00 22,0 °C 16,1 °C 57 % 80 % 1016,1 hPa 0,0 l/m² 2,3 km/h (1 Bft) N 1,00 h 376 W/m² 12,8 °C 16,1 °C 3,7 km/h (1 Bft)
03.06.2025 09:00 22,1 °C 18,6 °C 57 % 70 % 1015,9 hPa 0,0 l/m² 5,6 km/h (2 Bft) S-SO 1,00 h 609 W/m² 13,1 °C 18,3 °C 8,5 km/h (2 Bft)
03.06.2025 10:00 22,1 °C 20,1 °C 57 % 67 % 1015,4 hPa 0,0 l/m² 9,0 km/h (2 Bft) S 1,00 h 743 W/m² 13,6 °C 19,0 °C 13,0 km/h (3 Bft)
03.06.2025 11:00 22,1 °C 21,5 °C 57 % 64 % 1014,8 hPa 0,0 l/m² 9,6 km/h (2 Bft) S-SO 1,00 h 848 W/m² 14,4 °C 20,4 °C 13,7 km/h (3 Bft)
03.06.2025 12:00 22,1 °C 22,7 °C 58 % 58 % 1014,2 hPa 0,0 l/m² 10,0 km/h (2 Bft) SO 1,00 h 954 W/m² 14,1 °C 21,7 °C 14,3 km/h (3 Bft)
03.06.2025 13:00 22,1 °C 23,1 °C 58 % 59 % 1013,6 hPa 0,0 l/m² 10,7 km/h (2 Bft) S 1,00 h 853 W/m² 14,7 °C 21,9 °C 15,1 km/h (3 Bft)
03.06.2025 14:00 22,1 °C 23,9 °C 58 % 59 % 1013,1 hPa 0,0 l/m² 11,0 km/h (2 Bft) S 1,00 h 830 W/m² 15,5 °C 22,8 °C 15,6 km/h (3 Bft)
03.06.2025 15:00 22,1 °C 24,2 °C 58 % 54 % 1012,7 hPa 0,0 l/m² 14,1 km/h (3 Bft) S-SW 1,00 h 620 W/m² 14,2 °C 22,5 °C 19,4 km/h (3 Bft)
03.06.2025 16:00 22,1 °C 24,4 °C 58 % 50 % 1012,1 hPa 0,0 l/m² 15,6 km/h (3 Bft) S-SW 1,00 h 643 W/m² 13,5 °C 22,6 °C 21,4 km/h (4 Bft)
03.06.2025 17:00 22,1 °C 24,5 °C 58 % 48 % 1011,6 hPa 0,0 l/m² 14,6 km/h (3 Bft) S-SW 1,00 h 487 W/m² 12,8 °C 22,8 °C 20,2 km/h (4 Bft)
03.06.2025 18:00 22,2 °C 23,3 °C 57 % 52 % 1011,4 hPa 0,0 l/m² 11,1 km/h (2 Bft) S-SW 1,00 h 134 W/m² 12,9 °C 22,1 °C 14,6 km/h (3 Bft)
03.06.2025 19:00 22,2 °C 22,5 °C 57 % 58 % 1011,2 hPa 0,0 l/m² 4,6 km/h (1 Bft) SW 0,90 h 64 W/m² 13,8 °C 22,4 °C 6,7 km/h (2 Bft)
03.06.2025 20:00 22,2 °C 20,2 °C 58 % 70 % 1011,1 hPa 0,0 l/m² 0,1 km/h (0 Bft) N 0,00 h 26 W/m² 14,6 °C 20,2 °C 0,7 km/h (0 Bft)
03.06.2025 21:00 22,3 °C 17,2 °C 59 % 81 % 1011,0 hPa 0,0 l/m² 0,4 km/h (0 Bft) N 0,00 h 6 W/m² 13,9 °C 17,2 °C 0,7 km/h (0 Bft)
03.06.2025 22:00 22,2 °C 15,0 °C 59 % 88 % 1010,9 hPa 0,0 l/m² 0,7 km/h (0 Bft) N 0,00 h 0 W/m² 13,0 °C 15,0 °C 1,3 km/h (1 Bft)
03.06.2025 23:00 22,1 °C 14,9 °C 59 % 87 % 1010,8 hPa 0,0 l/m² 0,2 km/h (0 Bft) N 0,00 h 0 W/m² 12,7 °C 14,9 °C 0,5 km/h (0 Bft)
04.06.2025 00:00 22,1 °C 13,9 °C 59 % 90 % 1010,9 hPa 0,0 l/m² 0,0 km/h (0 Bft) N 0,00 h 0 W/m² 12,2 °C 13,9 °C 0,0 km/h (0 Bft)
04.06.2025 01:00 22,1 °C 12,9 °C 59 % 92 % 1010,7 hPa 0,0 l/m² 0,0 km/h (0 Bft) N 0,00 h 0 W/m² 11,6 °C 12,9 °C 0,0 km/h (0 Bft)
04.06.2025 02:00 22,1 °C 12,5 °C 59 % 92 % 1010,4 hPa 0,0 l/m² 0,0 km/h (0 Bft) N 0,00 h 0 W/m² 11,3 °C 12,5 °C 0,0 km/h (0 Bft)
04.06.2025 03:00 22,1 °C 12,3 °C 59 % 93 % 1010,1 hPa 0,0 l/m² 0,8 km/h (0 Bft) O 0,00 h 0 W/m² 11,1 °C 12,3 °C 1,9 km/h (1 Bft)
04.06.2025 04:00 22,1 °C 12,1 °C 59 % 93 % 1010,0 hPa 0,0 l/m² 0,5 km/h (0 Bft) N 0,00 h 0 W/m² 11,0 °C 12,1 °C 1,2 km/h (1 Bft)
04.06.2025 05:00 22,2 °C 12,2 °C 59 % 94 % 1010,1 hPa 0,0 l/m² 0,0 km/h (0 Bft) O-SO 0,00 h 18 W/m² 11,2 °C 12,2 °C 0,1 km/h (0 Bft)
04.06.2025 06:00 22,2 °C 12,9 °C 59 % 94 % 1010,2 hPa 0,0 l/m² 0,1 km/h (0 Bft) O-SO 0,78 h 91 W/m² 12,0 °C 12,9 °C 0,4 km/h (0 Bft)
04.06.2025 07:00 22,2 °C 16,4 °C 59 % 92 % 1010,0 hPa 0,0 l/m² 2,7 km/h (1 Bft) O-NO 1,00 h 183 W/m² 15,1 °C 16,4 °C 4,8 km/h (1 Bft)
04.06.2025 08:00 22,1 °C 19,8 °C 59 % 84 % 1009,8 hPa 0,0 l/m² 9,2 km/h (2 Bft) S-SW 1,02 h 325 W/m² 17,0 °C 18,7 °C 13,9 km/h (3 Bft)
04.06.2025 09:00 22,2 °C 20,9 °C 59 % 79 % 1009,5 hPa 0,0 l/m² 10,5 km/h (2 Bft) S 0,98 h 275 W/m² 17,1 °C 19,5 °C 15,3 km/h (3 Bft)
04.06.2025 10:00 22,2 °C 20,4 °C 59 % 81 % 1009,7 hPa 0,0 l/m² 6,4 km/h (2 Bft) S-SO 1,00 h 168 W/m² 17,1 °C 20,2 °C 9,7 km/h (2 Bft)
04.06.2025 11:00 22,2 °C 20,7 °C 59 % 82 % 1009,8 hPa 0,0 l/m² 6,9 km/h (2 Bft) S-SO 1,00 h 192 W/m² 17,4 °C 20,3 °C 10,7 km/h (2 Bft)
04.06.2025 12:00 22,2 °C 21,4 °C 59 % 80 % 1009,3 hPa 0,0 l/m² 10,1 km/h (2 Bft) S-SO 1,00 h 327 W/m² 17,8 °C 20,2 °C 15,3 km/h (3 Bft)
04.06.2025 13:00 22,2 °C 22,3 °C 59 % 76 % 1008,8 hPa 0,0 l/m² 14,1 km/h (3 Bft) S 1,02 h 391 W/m² 17,9 °C 20,3 °C 20,6 km/h (4 Bft)
04.06.2025 14:00 22,2 °C 22,9 °C 59 % 70 % 1008,5 hPa 0,0 l/m² 18,1 km/h (3 Bft) SW 1,00 h 392 W/m² 17,1 °C 20,3 °C 25,3 km/h (4 Bft)
04.06.2025 15:00 22,2 °C 21,9 °C 59 % 71 % 1008,7 hPa 0,0 l/m² 13,1 km/h (3 Bft) SW 1,00 h 138 W/m² 16,3 °C 20,0 °C 19,0 km/h (3 Bft)
04.06.2025 16:00 22,2 °C 21,7 °C 59 % 72 % 1008,6 hPa 0,0 l/m² 14,5 km/h (3 Bft) SW 1,00 h 240 W/m² 16,5 °C 19,5 °C 20,5 km/h (4 Bft)
04.06.2025 17:00 22,2 °C 22,5 °C 59 % 70 % 1008,0 hPa 0,0 l/m² 16,2 km/h (3 Bft) S-SW 1,00 h 436 W/m² 16,7 °C 20,0 °C 21,9 km/h (4 Bft)
04.06.2025 18:00 22,3 °C 21,7 °C 60 % 71 % 1007,6 hPa 0,0 l/m² 15,6 km/h (3 Bft) S-SW 1,00 h 173 W/m² 16,2 °C 19,2 °C 21,5 km/h (4 Bft)
04.06.2025 19:00 22,3 °C 20,8 °C 60 % 74 % 1007,7 hPa 0,0 l/m² 9,9 km/h (2 Bft) S-SW 0,93 h 68 W/m² 16,0 °C 19,6 °C 13,2 km/h (3 Bft)
04.06.2025 20:00 22,4 °C 20,0 °C 61 % 77 % 1007,8 hPa 0,0 l/m² 4,9 km/h (1 Bft) S-SW 0,00 h 24 W/m² 15,9 °C 19,9 °C 6,7 km/h (2 Bft)
04.06.2025 21:00 22,4 °C 18,9 °C 61 % 81 % 1007,7 hPa 0,0 l/m² 3,0 km/h (1 Bft) S-SW 0,00 h 5 W/m² 15,5 °C 18,8 °C 4,0 km/h (1 Bft)
04.06.2025 22:00 22,3 °C 17,5 °C 61 % 86 % 1007,7 hPa 0,0 l/m² 4,7 km/h (1 Bft) S-SW 0,00 h 0 W/m² 15,1 °C 17,5 °C 6,4 km/h (2 Bft)
04.06.2025 23:00 22,3 °C 17,1 °C 61 % 88 % 1008,1 hPa 0,0 l/m² 7,0 km/h (2 Bft) S 0,00 h 0 W/m² 15,1 °C 16,7 °C 8,8 km/h (2 Bft)
05.06.2025 00:00 22,3 °C 17,6 °C 60 % 87 % 1008,6 hPa 0,0 l/m² 5,1 km/h (1 Bft) SW 0,00 h 0 W/m² 15,4 °C 17,5 °C 7,7 km/h (2 Bft)
05.06.2025 01:00 22,3 °C 17,4 °C 60 % 87 % 1009,0 hPa 0,0 l/m² 8,0 km/h (2 Bft) SW 0,00 h 0 W/m² 15,1 °C 16,5 °C 11,3 km/h (2 Bft)
05.06.2025 02:00 22,3 °C 16,8 °C 60 % 86 % 1009,6 hPa 0,0 l/m² 3,5 km/h (1 Bft) W-NW 0,00 h 0 W/m² 14,5 °C 16,7 °C 7,4 km/h (2 Bft)
05.06.2025 03:00 22,3 °C 15,7 °C 60 % 89 % 1009,7 hPa 0,0 l/m² 1,2 km/h (1 Bft) W 0,00 h 0 W/m² 13,8 °C 15,7 °C 2,1 km/h (1 Bft)
05.06.2025 04:00 22,2 °C 14,1 °C 60 % 92 % 1010,1 hPa 0,0 l/m² 1,3 km/h (1 Bft) S-SW 0,00 h 0 W/m² 12,7 °C 14,1 °C 2,5 km/h (1 Bft)
05.06.2025 05:00 22,2 °C 14,1 °C 60 % 92 % 1010,3 hPa 0,0 l/m² 0,3 km/h (0 Bft) S 0,07 h 25 W/m² 12,8 °C 14,1 °C 0,9 km/h (0 Bft)
05.06.2025 06:00 22,2 °C 15,2 °C 60 % 92 % 1010,6 hPa 0,0 l/m² 1,5 km/h (1 Bft) S 1,00 h 101 W/m² 13,9 °C 15,1 °C 2,5 km/h (1 Bft)
05.06.2025 07:00 22,1 °C 17,3 °C 60 % 88 % 1010,7 hPa 0,0 l/m² 10,2 km/h (2 Bft) S 1,00 h 163 W/m² 15,2 °C 15,6 °C 14,3 km/h (3 Bft)
05.06.2025 08:00 22,1 °C 18,6 °C 60 % 82 % 1010,9 hPa 0,0 l/m² 12,1 km/h (2 Bft) S 1,00 h 244 W/m² 15,4 °C 16,4 °C 17,4 km/h (3 Bft)
05.06.2025 09:00 22,1 °C 18,6 °C 60 % 78 % 1011,1 hPa 0,0 l/m² 15,6 km/h (3 Bft) S-SW 1,00 h 177 W/m² 14,8 °C 15,5 °C 21,3 km/h (4 Bft)
05.06.2025 10:00 22,1 °C 19,6 °C 60 % 75 % 1011,3 hPa 0,0 l/m² 14,3 km/h (3 Bft) SW 1,00 h 480 W/m² 15,0 °C 17,0 °C 20,5 km/h (4 Bft)
05.06.2025 11:00 22,1 °C 20,1 °C 60 % 69 % 1011,4 hPa 0,0 l/m² 13,1 km/h (3 Bft) SW 0,98 h 456 W/m² 14,3 °C 17,9 °C 18,5 km/h (3 Bft)
05.06.2025 12:00 22,1 °C 21,1 °C 59 % 68 % 1011,1 hPa 0,0 l/m² 13,6 km/h (3 Bft) S-SW 1,02 h 397 W/m² 14,9 °C 19,0 °C 19,1 km/h (3 Bft)
05.06.2025 13:00 22,2 °C 21,7 °C 59 % 63 % 1011,0 hPa 0,0 l/m² 14,6 km/h (3 Bft) W-SW 1,00 h 548 W/m² 14,2 °C 19,6 °C 20,8 km/h (4 Bft)
05.06.2025 14:00 22,2 °C 23,5 °C 59 % 48 % 1010,8 hPa 0,0 l/m² 22,6 km/h (4 Bft) S-SW 1,00 h 781 W/m² 11,8 °C 20,4 °C 30,5 km/h (5 Bft)
05.06.2025 15:00 22,2 °C 23,1 °C 59 % 48 % 1010,7 hPa 0,0 l/m² 18,9 km/h (3 Bft) S-SW 1,00 h 498 W/m² 11,5 °C 20,5 °C 26,1 km/h (4 Bft)
05.06.2025 16:00 22,2 °C 22,5 °C 59 % 52 % 1010,4 hPa 0,0 l/m² 18,5 km/h (3 Bft) S-SW 1,00 h 352 W/m² 12,1 °C 19,7 °C 24,9 km/h (4 Bft)
05.06.2025 17:00 22,1 °C 21,4 °C 57 % 54 % 1010,2 hPa 0,0 l/m² 16,9 km/h (3 Bft) S-SW 1,00 h 169 W/m² 11,8 °C 18,6 °C 22,9 km/h (4 Bft)
05.06.2025 18:00 22,1 °C 20,1 °C 54 % 60 % 1010,4 hPa 0,0 l/m² 15,4 km/h (3 Bft) SW 1,00 h 115 W/m² 12,1 °C 17,4 °C 22,8 km/h (4 Bft)
05.06.2025 19:00 22,1 °C 17,9 °C 56 % 73 % 1010,5 hPa 0,0 l/m² 9,0 km/h (2 Bft) SW 0,98 h 82 W/m² 13,0 °C 16,8 °C 12,4 km/h (2 Bft)
05.06.2025 20:00 22,2 °C 17,4 °C 57 % 74 % 1010,5 hPa 0,0 l/m² 10,2 km/h (2 Bft) SW 0,28 h 39 W/m² 12,7 °C 15,8 °C 13,5 km/h (3 Bft)
05.06.2025 21:00 22,2 °C 16,3 °C 57 % 76 % 1010,6 hPa 0,0 l/m² 8,5 km/h (2 Bft) S-SW 0,00 h 8 W/m² 12,0 °C 15,0 °C 11,6 km/h (2 Bft)
05.06.2025 22:00 22,2 °C 14,6 °C 57 % 81 % 1010,8 hPa 0,0 l/m² 0,9 km/h (0 Bft) S-SO 0,00 h 0 W/m² 11,3 °C 14,6 °C 2,1 km/h (1 Bft)
05.06.2025 23:00 22,1 °C 13,0 °C 57 % 87 % 1010,3 hPa 0,0 l/m² 3,9 km/h (1 Bft) S-SO 0,00 h 0 W/m² 10,9 °C 12,7 °C 6,1 km/h (2 Bft)
06.06.2025 00:00 22,0 °C 13,8 °C 57 % 86 % 1010,2 hPa 0,0 l/m² 4,0 km/h (1 Bft) S 0,00 h 0 W/m² 11,5 °C 13,7 °C 7,1 km/h (2 Bft)
06.06.2025 01:00 22,0 °C 14,8 °C 57 % 80 % 1009,7 hPa 0,0 l/m² 8,6 km/h (2 Bft) S 0,00 h 0 W/m² 11,4 °C 13,6 °C 13,6 km/h (3 Bft)
06.06.2025 02:00 21,9 °C 15,3 °C 57 % 77 % 1009,1 hPa 0,0 l/m² 5,1 km/h (1 Bft) O-SO 0,00 h 0 W/m² 11,3 °C 14,9 °C 8,8 km/h (2 Bft)
06.06.2025 03:00 21,9 °C 15,1 °C 57 % 79 % 1008,3 hPa 0,0 l/m² 7,0 km/h (2 Bft) S 0,00 h 0 W/m² 11,5 °C 14,2 °C 10,4 km/h (2 Bft)
06.06.2025 04:00 21,9 °C 15,1 °C 57 % 86 % 1007,7 hPa 0,2 l/m² 6,8 km/h (2 Bft) SO 0,00 h 0 W/m² 12,8 °C 14,5 °C 9,8 km/h (2 Bft)
06.06.2025 05:00 21,9 °C 15,5 °C 58 % 88 % 1006,9 hPa 0,0 l/m² 10,6 km/h (2 Bft) SO 0,00 h 7 W/m² 13,6 °C 13,5 °C 15,0 km/h (3 Bft)
06.06.2025 06:00 21,8 °C 16,2 °C 58 % 86 % 1006,8 hPa 0,0 l/m² 12,0 km/h (2 Bft) S-SO 0,27 h 33 W/m² 13,8 °C 13,7 °C 17,0 km/h (3 Bft)
06.06.2025 07:00 21,8 °C 17,2 °C 58 % 81 % 1006,9 hPa 0,0 l/m² 17,2 km/h (3 Bft) S-SW 0,68 h 71 W/m² 13,9 °C 13,3 °C 23,6 km/h (4 Bft)
06.06.2025 08:00 21,8 °C 18,2 °C 58 % 79 % 1007,1 hPa 0,0 l/m² 18,2 km/h (3 Bft) S-SW 1,00 h 149 W/m² 14,5 °C 14,4 °C 25,0 km/h (4 Bft)
06.06.2025 09:00 21,7 °C 19,2 °C 58 % 77 % 1007,3 hPa 0,0 l/m² 18,0 km/h (3 Bft) S-SW 1,00 h 175 W/m² 15,0 °C 15,6 °C 24,4 km/h (4 Bft)
06.06.2025 10:00 21,7 °C 19,8 °C 58 % 76 % 1007,4 hPa 0,0 l/m² 18,7 km/h (3 Bft) SW 1,00 h 174 W/m² 15,4 °C 16,2 °C 25,0 km/h (4 Bft)
06.06.2025 11:00 21,7 °C 17,8 °C 58 % 87 % 1008,1 hPa 1,4 l/m² 19,2 km/h (3 Bft) SW 1,00 h 306 W/m² 15,7 °C 13,7 °C 26,6 km/h (4 Bft)
06.06.2025 12:00 21,8 °C 20,1 °C 58 % 80 % 1008,9 hPa 0,0 l/m² 20,9 km/h (4 Bft) SW 1,00 h 767 W/m² 16,5 °C 16,3 °C 29,1 km/h (5 Bft)
06.06.2025 13:00 21,9 °C 20,5 °C 58 % 72 % 1009,6 hPa 0,0 l/m² 18,0 km/h (3 Bft) W-SW 1,00 h 416 W/m² 15,4 °C 17,3 °C 26,1 km/h (4 Bft)
06.06.2025 14:00 21,9 °C 22,4 °C 58 % 62 % 1009,9 hPa 0,0 l/m² 24,3 km/h (4 Bft) W-SW 1,00 h 870 W/m² 14,8 °C 18,8 °C 33,5 km/h (5 Bft)
06.06.2025 15:00 21,9 °C 22,2 °C 58 % 59 % 1010,3 hPa 0,0 l/m² 23,8 km/h (4 Bft) W-SW 1,00 h 562 W/m² 13,8 °C 18,5 °C 32,9 km/h (5 Bft)
06.06.2025 16:00 22,1 °C 23,3 °C 59 % 55 % 1010,6 hPa 0,0 l/m² 21,4 km/h (4 Bft) W-SW 1,00 h 678 W/m² 13,8 °C 20,3 °C 30,0 km/h (5 Bft)
06.06.2025 17:00 22,1 °C 22,0 °C 57 % 57 % 1010,8 hPa 0,0 l/m² 18,4 km/h (3 Bft) W-SW 1,00 h 364 W/m² 13,0 °C 19,2 °C 25,5 km/h (4 Bft)
06.06.2025 18:00 22,1 °C 21,6 °C 55 % 59 % 1010,8 hPa 0,0 l/m² 15,6 km/h (3 Bft) SW 1,00 h 160 W/m² 13,3 °C 19,2 °C 21,0 km/h (4 Bft)
06.06.2025 19:00 22,1 °C 21,1 °C 56 % 60 % 1010,8 hPa 0,0 l/m² 11,9 km/h (2 Bft) W-SW 0,47 h 55 W/m² 12,9 °C 19,4 °C 17,0 km/h (3 Bft)
06.06.2025 20:00 22,1 °C 19,7 °C 57 % 66 % 1010,9 hPa 0,0 l/m² 5,9 km/h (2 Bft) SW 0,27 h 37 W/m² 13,2 °C 19,5 °C 8,1 km/h (2 Bft)
06.06.2025 21:00 22,1 °C 17,9 °C 58 % 75 % 1011,2 hPa 0,0 l/m² 2,3 km/h (1 Bft) S-SW 0,00 h 7 W/m² 13,5 °C 17,9 °C 3,4 km/h (1 Bft)
06.06.2025 22:00 22,1 °C 16,3 °C 58 % 79 % 1011,4 hPa 0,0 l/m² 4,6 km/h (1 Bft) S-SW 0,00 h 0 W/m² 12,7 °C 16,3 °C 6,3 km/h (2 Bft)
06.06.2025 23:00 21,9 °C 14,9 °C 56 % 83 % 1011,5 hPa 0,0 l/m² 1,5 km/h (1 Bft) SW 0,00 h 0 W/m² 12,0 °C 14,9 °C 2,9 km/h (1 Bft)
07.06.2025 00:00 21,9 °C 13,9 °C 57 % 87 % 1011,7 hPa 0,0 l/m² 4,5 km/h (1 Bft) S-SW 0,00 h 0 W/m² 11,8 °C 13,9 °C 5,9 km/h (2 Bft)
07.06.2025 01:00 21,9 °C 13,7 °C 57 % 89 % 1011,4 hPa 0,0 l/m² 4,1 km/h (1 Bft) S-SW 0,00 h 0 W/m² 12,0 °C 13,7 °C 5,8 km/h (2 Bft)
07.06.2025 02:00 21,8 °C 14,6 °C 58 % 88 % 1011,2 hPa 0,0 l/m² 2,5 km/h (1 Bft) S-SW 0,00 h 0 W/m² 12,7 °C 14,6 °C 4,4 km/h (1 Bft)
07.06.2025 03:00 21,8 °C 14,5 °C 58 % 89 % 1010,9 hPa 0,0 l/m² 0,9 km/h (0 Bft) S-SW 0,00 h 0 W/m² 12,7 °C 14,5 °C 2,3 km/h (1 Bft)
07.06.2025 04:00 21,8 °C 13,9 °C 58 % 90 % 1010,5 hPa 0,0 l/m² 1,6 km/h (1 Bft) S-SO 0,00 h 0 W/m² 12,3 °C 13,9 °C 3,6 km/h (1 Bft)
07.06.2025 05:00 21,8 °C 13,3 °C 58 % 91 % 1010,4 hPa 0,0 l/m² 2,0 km/h (1 Bft) S-SO 0,00 h 23 W/m² 11,9 °C 13,3 °C 4,0 km/h (1 Bft)
07.06.2025 06:00 21,7 °C 14,7 °C 58 % 91 % 1010,5 hPa 0,0 l/m² 4,0 km/h (1 Bft) S-SW 1,00 h 103 W/m² 13,3 °C 14,7 °C 6,4 km/h (2 Bft)
07.06.2025 07:00 21,7 °C 16,6 °C 58 % 87 % 1010,4 hPa 0,0 l/m² 7,5 km/h (2 Bft) S 1,00 h 150 W/m² 14,4 °C 16,0 °C 10,6 km/h (2 Bft)
07.06.2025 08:00 21,8 °C 18,3 °C 59 % 80 % 1010,4 hPa 0,0 l/m² 9,5 km/h (2 Bft) S-SW 0,98 h 247 W/m² 14,8 °C 17,0 °C 13,9 km/h (3 Bft)
07.06.2025 09:00 21,8 °C 19,5 °C 58 % 75 % 1010,2 hPa 0,0 l/m² 10,8 km/h (2 Bft) S-SW 1,02 h 312 W/m² 14,9 °C 17,9 °C 15,2 km/h (3 Bft)
07.06.2025 10:00 21,8 °C 19,2 °C 58 % 75 % 1010,0 hPa 0,8 l/m² 8,5 km/h (2 Bft) S-SW 0,98 h 180 W/m² 14,7 °C 18,3 °C 12,3 km/h (2 Bft)
07.06.2025 11:00 21,9 °C 19,3 °C 58 % 81 % 1009,3 hPa 0,0 l/m² 5,8 km/h (2 Bft) SW 1,02 h 451 W/m² 15,9 °C 19,1 °C 10,0 km/h (2 Bft)
07.06.2025 12:00 21,8 °C 19,5 °C 60 % 80 % 1008,6 hPa 0,4 l/m² 10,8 km/h (2 Bft) S 1,00 h 344 W/m² 15,8 °C 17,9 °C 14,7 km/h (3 Bft)
07.06.2025 13:00 21,9 °C 19,1 °C 61 % 82 % 1008,4 hPa 4,2 l/m² 12,2 km/h (2 Bft) SW 1,00 h 388 W/m² 15,9 °C 17,0 °C 17,5 km/h (3 Bft)
07.06.2025 14:00 21,9 °C 17,7 °C 60 % 86 % 1008,5 hPa 0,6 l/m² 9,1 km/h (2 Bft) W-SW 1,00 h 292 W/m² 15,4 °C 16,4 °C 15,1 km/h (3 Bft)
07.06.2025 15:00 21,8 °C 17,7 °C 60 % 85 % 1008,6 hPa 0,0 l/m² 9,6 km/h (2 Bft) SW 1,00 h 473 W/m² 15,2 °C 16,3 °C 13,7 km/h (3 Bft)
07.06.2025 16:00 21,8 °C 19,2 °C 60 % 77 % 1008,4 hPa 0,0 l/m² 15,6 km/h (3 Bft) SW 1,00 h 570 W/m² 15,1 °C 16,2 °C 21,3 km/h (4 Bft)
07.06.2025 17:00 21,8 °C 19,2 °C 60 % 70 % 1008,5 hPa 0,0 l/m² 21,5 km/h (4 Bft) SW 1,00 h 264 W/m² 13,6 °C 15,0 °C 29,0 km/h (5 Bft)
07.06.2025 18:00 21,8 °C 18,7 °C 60 % 70 % 1008,5 hPa 0,0 l/m² 15,6 km/h (3 Bft) SW 1,00 h 186 W/m² 13,2 °C 15,6 °C 21,5 km/h (4 Bft)
07.06.2025 19:00 21,8 °C 18,1 °C 59 % 74 % 1008,9 hPa 0,0 l/m² 11,9 km/h (2 Bft) SW 0,98 h 107 W/m² 13,5 °C 15,9 °C 16,3 km/h (3 Bft)
07.06.2025 20:00 21,7 °C 16,3 °C 59 % 82 % 1009,3 hPa 0,0 l/m² 9,8 km/h (2 Bft) SW 0,07 h 30 W/m² 13,2 °C 14,8 °C 13,1 km/h (3 Bft)
07.06.2025 21:00 21,7 °C 14,6 °C 59 % 86 % 1009,8 hPa 0,0 l/m² 5,4 km/h (2 Bft) S-SW 0,00 h 8 W/m² 12,3 °C 14,4 °C 7,3 km/h (2 Bft)
07.06.2025 22:00 21,7 °C 13,8 °C 59 % 87 % 1010,2 hPa 0,0 l/m² 6,2 km/h (2 Bft) SW 0,00 h 0 W/m² 11,7 °C 13,3 °C 7,9 km/h (2 Bft)
07.06.2025 23:00 21,8 °C 13,3 °C 59 % 87 % 1010,1 hPa 0,0 l/m² 4,7 km/h (1 Bft) SW 0,00 h 0 W/m² 11,1 °C 13,2 °C 6,5 km/h (2 Bft)
08.06.2025 00:00 21,7 °C 12,8 °C 59 % 88 % 1010,0 hPa 0,0 l/m² 6,8 km/h (2 Bft) SW 0,00 h 0 W/m² 10,8 °C 12,5 °C 8,7 km/h (2 Bft)
08.06.2025 01:00 21,7 °C 12,5 °C 59 % 89 % 1009,6 hPa 0,0 l/m² 6,6 km/h (2 Bft) S-SW 0,00 h 0 W/m² 10,7 °C 12,0 °C 8,4 km/h (2 Bft)
08.06.2025 02:00 21,6 °C 12,6 °C 59 % 89 % 1009,4 hPa 0,0 l/m² 3,3 km/h (1 Bft) S-SO 0,00 h 0 W/m² 10,8 °C 12,6 °C 5,9 km/h (2 Bft)
08.06.2025 03:00 21,6 °C 12,7 °C 59 % 89 % 1008,9 hPa 0,0 l/m² 4,4 km/h (1 Bft) S 0,00 h 0 W/m² 10,9 °C 12,7 °C 7,9 km/h (2 Bft)
08.06.2025 04:00 21,5 °C 12,9 °C 59 % 89 % 1008,1 hPa 0,0 l/m² 5,0 km/h (1 Bft) SO 0,00 h 0 W/m² 11,1 °C 12,9 °C 8,7 km/h (2 Bft)
08.06.2025 05:00 21,4 °C 13,5 °C 59 % 89 % 1007,6 hPa 0,0 l/m² 1,8 km/h (1 Bft) S-SO 0,00 h 10 W/m² 11,6 °C 13,5 °C 4,0 km/h (1 Bft)
08.06.2025 06:00 21,4 °C 14,2 °C 59 % 88 % 1007,0 hPa 0,0 l/m² 7,3 km/h (2 Bft) S-SO 0,20 h 47 W/m² 12,3 °C 13,5 °C 12,3 km/h (2 Bft)
08.06.2025 07:00 21,4 °C 15,5 °C 59 % 86 % 1006,6 hPa 0,0 l/m² 9,6 km/h (2 Bft) S-SO 0,92 h 167 W/m² 13,1 °C 13,9 °C 14,8 km/h (3 Bft)
08.06.2025 08:00 21,4 °C 15,6 °C 60 % 86 % 1006,5 hPa 5,2 l/m² 16,3 km/h (3 Bft) SW 0,33 h 53 W/m² 13,2 °C 11,7 °C 24,7 km/h (4 Bft)
08.06.2025 09:00 21,3 °C 14,5 °C 60 % 89 % 1006,9 hPa 0,0 l/m² 12,2 km/h (2 Bft) S-SW 1,02 h 291 W/m² 12,7 °C 11,9 °C 18,3 km/h (3 Bft)
08.06.2025 10:00 21,3 °C 16,2 °C 60 % 84 % 1007,0 hPa 0,0 l/m² 20,4 km/h (4 Bft) SW 1,00 h 503 W/m² 13,6 °C 11,3 °C 29,9 km/h (5 Bft)
08.06.2025 11:00 21,3 °C 17,6 °C 60 % 75 % 1007,5 hPa 0,0 l/m² 24,5 km/h (4 Bft) SW 1,00 h 480 W/m² 13,1 °C 12,3 °C 33,5 km/h (5 Bft)
08.06.2025 12:00 21,3 °C 17,0 °C 59 % 72 % 1008,4 hPa 0,0 l/m² 24,2 km/h (4 Bft) W-SW 1,00 h 583 W/m² 11,9 °C 11,6 °C 34,6 km/h (5 Bft)
08.06.2025 13:00 21,3 °C 17,3 °C 59 % 69 % 1009,0 hPa 0,0 l/m² 23,7 km/h (4 Bft) W-SW 1,00 h 533 W/m² 11,5 °C 12,0 °C 32,0 km/h (5 Bft)
08.06.2025 14:00 21,3 °C 18,2 °C 59 % 66 % 1009,4 hPa 0,0 l/m² 23,3 km/h (4 Bft) W-SW 1,00 h 538 W/m² 11,6 °C 13,3 °C 33,1 km/h (5 Bft)
08.06.2025 15:00 21,2 °C 18,6 °C 59 % 62 % 1009,9 hPa 0,0 l/m² 25,7 km/h (4 Bft) W-SW 1,00 h 544 W/m² 11,2 °C 13,4 °C 35,9 km/h (5 Bft)
08.06.2025 16:00 21,2 °C 16,6 °C 59 % 65 % 1011,0 hPa 0,0 l/m² 22,0 km/h (4 Bft) W-SW 1,00 h 356 W/m² 10,1 °C 11,5 °C 33,0 km/h (5 Bft)
08.06.2025 17:00 21,2 °C 16,2 °C 59 % 66 % 1011,7 hPa 0,0 l/m² 22,9 km/h (4 Bft) W-SW 1,00 h 339 W/m² 9,9 °C 10,8 °C 33,9 km/h (5 Bft)
08.06.2025 18:00 21,2 °C 16,1 °C 59 % 66 % 1012,6 hPa 0,0 l/m² 23,4 km/h (4 Bft) W-SW 1,00 h 189 W/m² 9,7 °C 10,4 °C 33,7 km/h (5 Bft)
08.06.2025 19:00 21,2 °C 14,8 °C 59 % 71 % 1013,8 hPa 0,0 l/m² 19,6 km/h (3 Bft) W-SW 1,00 h 88 W/m² 9,6 °C 9,6 °C 27,5 km/h (5 Bft)
08.06.2025 20:00 21,2 °C 13,2 °C 59 % 77 % 1014,6 hPa 0,0 l/m² 16,4 km/h (3 Bft) W-SW 0,13 h 35 W/m² 9,1 °C 8,6 °C 22,8 km/h (4 Bft)
08.06.2025 21:00 21,2 °C 12,7 °C 59 % 79 % 1015,6 hPa 0,0 l/m² 17,5 km/h (3 Bft) SW 0,00 h 7 W/m² 9,2 °C 7,6 °C 23,9 km/h (4 Bft)
08.06.2025 22:00 21,2 °C 11,8 °C 58 % 80 % 1016,7 hPa 0,0 l/m² 17,5 km/h (3 Bft) W-SW 0,00 h 0 W/m² 8,5 °C 6,5 °C 23,3 km/h (4 Bft)
08.06.2025 23:00 21,1 °C 11,2 °C 58 % 82 % 1017,5 hPa 0,0 l/m² 16,9 km/h (3 Bft) SW 0,00 h 0 W/m² 8,3 °C 5,9 °C 23,3 km/h (4 Bft)
Min-Datum _ 08.06.25 03.06.25 05.06.25 05.06.25 08.06.25 - 08.06.25 - - - 03.06.25 08.06.25 07.06.25
_ Min-Zeit 23:21 05:00 18:01 14:47 08:52 - 02:47 - - - 05:00 23:16 05:56
Minimum _ 21,1 °C 7,4 °C 53 % 43 % 1005,5 hPa - 0,0 km/h (0 Bft) - - - 6,2 °C 4,6 °C 0,0 km/h (0 Bft)
Max-Datum _ 02.06.25 03.06.25 02.06.25 02.06.25 08.06.25 08.06.25 06.06.25 - 06.06.25 06.06.25 04.06.25 03.06.25 08.06.25
_ Max-Zeit 00:00 15:37 02:01 08:00 23:57 08:30 15:39 - 12:10 11:54 13:39 16:52 12:26
Maximum _ 22,9 °C 25,2 °C 63 % 96 % 1017,7 hPa 5,2 l/m² 35,7 km/h
W-SW (5 Bft)
- 0,15 h 1164 W/m² 18,7 °C 24,4 °C 49,9 km/h
W-SW (7 Bft)
Durchschnitt _ 22,0 °C 17,3 °C 59 % 78 % 1011,1 hPa #12,8 l/m² 9,3 km/h (2 Bft) SW #95:06 h 206 W/m² 13,2 °C 15,8 °C 13,3 km/h (3 Bft)
© 2009 Mathias Hoßbach